sensor_id;sensor_type;location;lat;lon;timestamp;P1;durP1;ratioP1;P2;durP2;ratioP2
9524;SDS011;15940;48.734;9.112;2023-05-10T00:02:06;1.17;;;1.10;;
9524;SDS011;15940;48.734;9.112;2023-05-10T00:04:32;1.03;;;0.93;;
9524;SDS011;15940;48.734;9.112;2023-05-10T00:06:59;1.10;;;1.10;;
9524;SDS011;15940;48.734;9.112;2023-05-10T00:09:26;0.90;;;0.90;;
9524;SDS011;15940;48.734;9.112;2023-05-10T00:11:53;2.43;;;0.80;;
9524;SDS011;15940;48.734;9.112;2023-05-10T00:14:20;0.60;;;0.60;;
9524;SDS011;15940;48.734;9.112;2023-05-10T00:16:48;0.30;;;0.30;;
9524;SDS011;15940;48.734;9.112;2023-05-10T00:19:15;0.93;;;0.60;;
9524;SDS011;15940;48.734;9.112;2023-05-10T00:21:42;0.63;;;0.63;;
9524;SDS011;15940;48.734;9.112;2023-05-10T00:24:09;0.83;;;0.40;;
9524;SDS011;15940;48.734;9.112;2023-05-10T00:26:36;1.03;;;0.77;;
9524;SDS011;15940;48.734;9.112;2023-05-10T00:29:03;0.93;;;0.53;;
9524;SDS011;15940;48.734;9.112;2023-05-10T00:31:30;0.90;;;0.90;;
9524;SDS011;15940;48.734;9.112;2023-05-10T00:33:58;0.77;;;0.53;;
9524;SDS011;15940;48.734;9.112;2023-05-10T00:36:25;0.50;;;0.43;;
9524;SDS011;15940;48.734;9.112;2023-05-10T00:38:52;1.50;;;0.43;;
9524;SDS011;15940;48.734;9.112;2023-05-10T00:41:19;0.27;;;0.27;;
9524;SDS011;15940;48.734;9.112;2023-05-10T00:43:47;1.00;;;0.67;;
9524;SDS011;15940;48.734;9.112;2023-05-10T00:46:14;0.43;;;0.30;;
9524;SDS011;15940;48.734;9.112;2023-05-10T00:48:42;0.37;;;0.37;;
9524;SDS011;15940;48.734;9.112;2023-05-10T00:51:12;2.67;;;0.27;;
9524;SDS011;15940;48.734;9.112;2023-05-10T00:53:39;0.43;;;0.43;;
9524;SDS011;15940;48.734;9.112;2023-05-10T00:56:07;1.40;;;0.40;;
9524;SDS011;15940;48.734;9.112;2023-05-10T00:58:34;1.40;;;0.33;;
9524;SDS011;15940;48.734;9.112;2023-05-10T01:01:01;0.67;;;0.33;;
9524;SDS011;15940;48.734;9.112;2023-05-10T01:03:28;0.63;;;0.30;;
9524;SDS011;15940;48.734;9.112;2023-05-10T01:05:55;0.93;;;0.93;;
9524;SDS011;15940;48.734;9.112;2023-05-10T01:08:23;0.20;;;0.20;;
9524;SDS011;15940;48.734;9.112;2023-05-10T01:10:51;3.77;;;0.30;;
9524;SDS011;15940;48.734;9.112;2023-05-10T01:13:20;0.30;;;0.30;;
9524;SDS011;15940;48.734;9.112;2023-05-10T01:15:57;0.30;;;0.30;;
9524;SDS011;15940;48.734;9.112;2023-05-10T01:18:26;0.37;;;0.33;;
9524;SDS011;15940;48.734;9.112;2023-05-10T01:20:56;0.53;;;0.23;;
9524;SDS011;15940;48.734;9.112;2023-05-10T01:23:44;0.30;;;0.30;;
9524;SDS011;15940;48.734;9.112;2023-05-10T01:26:39;0.23;;;0.23;;
9524;SDS011;15940;48.734;9.112;2023-05-10T01:32:50;0.70;;;0.40;;
9524;SDS011;15940;48.734;9.112;2023-05-10T01:35:23;0.60;;;0.40;;
9524;SDS011;15940;48.734;9.112;2023-05-10T01:37:59;0.70;;;0.50;;
9524;SDS011;15940;48.734;9.112;2023-05-10T01:40:39;0.40;;;0.30;;
9524;SDS011;15940;48.734;9.112;2023-05-10T01:43:25;0.73;;;0.50;;
9524;SDS011;15940;48.734;9.112;2023-05-10T01:45:59;0.37;;;0.30;;
9524;SDS011;15940;48.734;9.112;2023-05-10T01:48:36;0.30;;;0.30;;
9524;SDS011;15940;48.734;9.112;2023-05-10T01:51:08;0.40;;;0.40;;
9524;SDS011;15940;48.734;9.112;2023-05-10T01:53:36;0.53;;;0.53;;
9524;SDS011;15940;48.734;9.112;2023-05-10T01:56:05;0.50;;;0.50;;
9524;SDS011;15940;48.734;9.112;2023-05-10T01:58:34;0.30;;;0.30;;
9524;SDS011;15940;48.734;9.112;2023-05-10T02:01:05;4.80;;;0.50;;
9524;SDS011;15940;48.734;9.112;2023-05-10T02:03:33;0.40;;;0.40;;
9524;SDS011;15940;48.734;9.112;2023-05-10T02:06:03;0.40;;;0.40;;
9524;SDS011;15940;48.734;9.112;2023-05-10T02:08:32;0.37;;;0.37;;
9524;SDS011;15940;48.734;9.112;2023-05-10T02:11:01;0.93;;;0.50;;
9524;SDS011;15940;48.734;9.112;2023-05-10T02:13:30;2.93;;;0.43;;
9524;SDS011;15940;48.734;9.112;2023-05-10T02:16:01;2.70;;;0.50;;
9524;SDS011;15940;48.734;9.112;2023-05-10T02:18:29;1.40;;;0.40;;
9524;SDS011;15940;48.734;9.112;2023-05-10T02:20:57;0.30;;;0.30;;
9524;SDS011;15940;48.734;9.112;2023-05-10T02:23:26;0.73;;;0.30;;
9524;SDS011;15940;48.734;9.112;2023-05-10T02:25:56;0.50;;;0.50;;
9524;SDS011;15940;48.734;9.112;2023-05-10T02:28:25;0.90;;;0.60;;
9524;SDS011;15940;48.734;9.112;2023-05-10T02:30:53;1.50;;;0.50;;
9524;SDS011;15940;48.734;9.112;2023-05-10T02:33:22;0.50;;;0.50;;
9524;SDS011;15940;48.734;9.112;2023-05-10T02:35:50;0.50;;;0.50;;
9524;SDS011;15940;48.734;9.112;2023-05-10T02:38:18;0.50;;;0.50;;
9524;SDS011;15940;48.734;9.112;2023-05-10T02:40:48;0.50;;;0.50;;
9524;SDS011;15940;48.734;9.112;2023-05-10T02:43:15;0.73;;;0.73;;
9524;SDS011;15940;48.734;9.112;2023-05-10T02:45:44;0.50;;;0.50;;
9524;SDS011;15940;48.734;9.112;2023-05-10T02:48:14;5.10;;;0.77;;
9524;SDS011;15940;48.734;9.112;2023-05-10T02:50:42;1.50;;;0.67;;
9524;SDS011;15940;48.734;9.112;2023-05-10T02:53:15;1.17;;;0.87;;
9524;SDS011;15940;48.734;9.112;2023-05-10T02:55:44;1.40;;;0.70;;
9524;SDS011;15940;48.734;9.112;2023-05-10T02:58:19;3.20;;;0.90;;
9524;SDS011;15940;48.734;9.112;2023-05-10T03:00:47;1.13;;;0.70;;
9524;SDS011;15940;48.734;9.112;2023-05-10T03:03:14;1.07;;;0.90;;
9524;SDS011;15940;48.734;9.112;2023-05-10T03:05:41;1.23;;;0.70;;
9524;SDS011;15940;48.734;9.112;2023-05-10T03:08:08;0.80;;;0.80;;
9524;SDS011;15940;48.734;9.112;2023-05-10T03:10:37;1.70;;;0.73;;
9524;SDS011;15940;48.734;9.112;2023-05-10T03:13:16;1.20;;;1.10;;
9524;SDS011;15940;48.734;9.112;2023-05-10T03:15:56;1.30;;;1.20;;
9524;SDS011;15940;48.734;9.112;2023-05-10T03:18:33;1.37;;;1.10;;
9524;SDS011;15940;48.734;9.112;2023-05-10T03:21:08;1.20;;;1.10;;
9524;SDS011;15940;48.734;9.112;2023-05-10T03:23:40;1.30;;;1.20;;
9524;SDS011;15940;48.734;9.112;2023-05-10T03:26:11;1.30;;;1.20;;
9524;SDS011;15940;48.734;9.112;2023-05-10T03:28:50;0.90;;;0.90;;
9524;SDS011;15940;48.734;9.112;2023-05-10T03:31:18;2.43;;;1.20;;
9524;SDS011;15940;48.734;9.112;2023-05-10T03:33:46;1.20;;;1.10;;
9524;SDS011;15940;48.734;9.112;2023-05-10T03:36:13;1.57;;;1.30;;
9524;SDS011;15940;48.734;9.112;2023-05-10T03:38:41;1.20;;;1.20;;
9524;SDS011;15940;48.734;9.112;2023-05-10T03:41:08;1.30;;;1.20;;
9524;SDS011;15940;48.734;9.112;2023-05-10T03:43:35;1.73;;;1.47;;
9524;SDS011;15940;48.734;9.112;2023-05-10T03:46:03;1.10;;;1.10;;
9524;SDS011;15940;48.734;9.112;2023-05-10T03:48:31;1.17;;;1.10;;
9524;SDS011;15940;48.734;9.112;2023-05-10T03:50:58;3.40;;;1.37;;
9524;SDS011;15940;48.734;9.112;2023-05-10T03:53:25;2.73;;;1.40;;
9524;SDS011;15940;48.734;9.112;2023-05-10T03:55:52;1.70;;;1.20;;
9524;SDS011;15940;48.734;9.112;2023-05-10T03:58:19;1.43;;;1.20;;
9524;SDS011;15940;48.734;9.112;2023-05-10T04:00:46;1.40;;;1.30;;
9524;SDS011;15940;48.734;9.112;2023-05-10T04:03:15;1.33;;;1.10;;
9524;SDS011;15940;48.734;9.112;2023-05-10T04:05:42;1.10;;;1.10;;
9524;SDS011;15940;48.734;9.112;2023-05-10T04:08:09;3.37;;;1.10;;
9524;SDS011;15940;48.734;9.112;2023-05-10T04:10:36;2.30;;;1.17;;
9524;SDS011;15940;48.734;9.112;2023-05-10T04:13:02;1.13;;;1.10;;
9524;SDS011;15940;48.734;9.112;2023-05-10T04:15:29;1.30;;;1.30;;
9524;SDS011;15940;48.734;9.112;2023-05-10T04:17:56;1.20;;;1.10;;
9524;SDS011;15940;48.734;9.112;2023-05-10T04:20:24;1.37;;;1.23;;
9524;SDS011;15940;48.734;9.112;2023-05-10T04:22:51;1.60;;;1.50;;
9524;SDS011;15940;48.734;9.112;2023-05-10T04:25:18;1.30;;;1.17;;
9524;SDS011;15940;48.734;9.112;2023-05-10T04:27:45;1.40;;;1.30;;
9524;SDS011;15940;48.734;9.112;2023-05-10T04:30:12;1.50;;;1.40;;
9524;SDS011;15940;48.734;9.112;2023-05-10T04:32:39;2.57;;;1.40;;
9524;SDS011;15940;48.734;9.112;2023-05-10T04:35:06;1.43;;;1.20;;
9524;SDS011;15940;48.734;9.112;2023-05-10T04:37:36;1.23;;;1.23;;
9524;SDS011;15940;48.734;9.112;2023-05-10T04:40:03;1.60;;;1.40;;
9524;SDS011;15940;48.734;9.112;2023-05-10T04:42:32;2.67;;;1.30;;
9524;SDS011;15940;48.734;9.112;2023-05-10T04:44:58;1.13;;;1.13;;
9524;SDS011;15940;48.734;9.112;2023-05-10T04:47:26;2.20;;;1.40;;
9524;SDS011;15940;48.734;9.112;2023-05-10T04:49:53;1.50;;;1.40;;
9524;SDS011;15940;48.734;9.112;2023-05-10T04:52:19;1.27;;;1.27;;
9524;SDS011;15940;48.734;9.112;2023-05-10T04:54:48;1.53;;;1.43;;
9524;SDS011;15940;48.734;9.112;2023-05-10T04:57:15;1.73;;;1.20;;
9524;SDS011;15940;48.734;9.112;2023-05-10T04:59:42;3.23;;;1.50;;
9524;SDS011;15940;48.734;9.112;2023-05-10T05:02:09;2.43;;;1.30;;
9524;SDS011;15940;48.734;9.112;2023-05-10T05:04:36;1.40;;;1.30;;
9524;SDS011;15940;48.734;9.112;2023-05-10T05:07:03;2.30;;;1.50;;
9524;SDS011;15940;48.734;9.112;2023-05-10T05:09:30;2.50;;;1.70;;
9524;SDS011;15940;48.734;9.112;2023-05-10T05:11:59;2.77;;;1.60;;
9524;SDS011;15940;48.734;9.112;2023-05-10T05:14:26;1.73;;;1.50;;
9524;SDS011;15940;48.734;9.112;2023-05-10T05:16:53;2.83;;;1.43;;
9524;SDS011;15940;48.734;9.112;2023-05-10T05:19:20;2.73;;;1.50;;
9524;SDS011;15940;48.734;9.112;2023-05-10T05:21:47;1.43;;;1.33;;
9524;SDS011;15940;48.734;9.112;2023-05-10T05:24:14;3.63;;;1.60;;
9524;SDS011;15940;48.734;9.112;2023-05-10T05:26:41;1.70;;;1.60;;
9524;SDS011;15940;48.734;9.112;2023-05-10T05:29:09;1.53;;;1.43;;
9524;SDS011;15940;48.734;9.112;2023-05-10T05:31:36;2.30;;;1.33;;
9524;SDS011;15940;48.734;9.112;2023-05-10T05:34:03;1.60;;;1.20;;
9524;SDS011;15940;48.734;9.112;2023-05-10T05:36:30;1.50;;;1.40;;
9524;SDS011;15940;48.734;9.112;2023-05-10T05:38:57;2.30;;;1.70;;
9524;SDS011;15940;48.734;9.112;2023-05-10T05:41:24;3.40;;;1.57;;
9524;SDS011;15940;48.734;9.112;2023-05-10T05:43:51;1.80;;;1.57;;
9524;SDS011;15940;48.734;9.112;2023-05-10T05:46:19;2.90;;;1.63;;
9524;SDS011;15940;48.734;9.112;2023-05-10T05:48:46;1.60;;;1.50;;
9524;SDS011;15940;48.734;9.112;2023-05-10T05:51:13;3.50;;;1.73;;
9524;SDS011;15940;48.734;9.112;2023-05-10T05:53:40;1.93;;;1.63;;
9524;SDS011;15940;48.734;9.112;2023-05-10T05:56:07;1.70;;;1.60;;
9524;SDS011;15940;48.734;9.112;2023-05-10T05:58:34;4.37;;;1.90;;
9524;SDS011;15940;48.734;9.112;2023-05-10T06:01:01;3.70;;;1.50;;
9524;SDS011;15940;48.734;9.112;2023-05-10T06:03:30;1.60;;;1.50;;
9524;SDS011;15940;48.734;9.112;2023-05-10T06:05:57;2.37;;;1.60;;
9524;SDS011;15940;48.734;9.112;2023-05-10T06:08:24;1.73;;;1.63;;
9524;SDS011;15940;48.734;9.112;2023-05-10T06:10:51;3.33;;;1.60;;
9524;SDS011;15940;48.734;9.112;2023-05-10T06:13:18;4.23;;;1.83;;
9524;SDS011;15940;48.734;9.112;2023-05-10T06:15:46;2.20;;;1.83;;
9524;SDS011;15940;48.734;9.112;2023-05-10T06:18:13;2.03;;;1.70;;
9524;SDS011;15940;48.734;9.112;2023-05-10T06:20:42;3.67;;;1.97;;
9524;SDS011;15940;48.734;9.112;2023-05-10T06:23:08;1.90;;;1.80;;
9524;SDS011;15940;48.734;9.112;2023-05-10T06:25:35;1.97;;;1.60;;
9524;SDS011;15940;48.734;9.112;2023-05-10T06:28:02;1.80;;;1.70;;
9524;SDS011;15940;48.734;9.112;2023-05-10T06:30:29;1.80;;;1.70;;
9524;SDS011;15940;48.734;9.112;2023-05-10T06:32:56;1.57;;;1.47;;
9524;SDS011;15940;48.734;9.112;2023-05-10T06:35:23;1.47;;;1.37;;
9524;SDS011;15940;48.734;9.112;2023-05-10T06:37:52;2.03;;;1.80;;
9524;SDS011;15940;48.734;9.112;2023-05-10T06:40:19;1.70;;;1.60;;
9524;SDS011;15940;48.734;9.112;2023-05-10T06:42:46;1.70;;;1.60;;
9524;SDS011;15940;48.734;9.112;2023-05-10T06:45:13;2.03;;;1.63;;
9524;SDS011;15940;48.734;9.112;2023-05-10T06:47:40;3.47;;;1.80;;
9524;SDS011;15940;48.734;9.112;2023-05-10T06:50:08;2.27;;;2.07;;
9524;SDS011;15940;48.734;9.112;2023-05-10T06:52:36;2.13;;;1.90;;
9524;SDS011;15940;48.734;9.112;2023-05-10T06:55:05;1.90;;;1.77;;
9524;SDS011;15940;48.734;9.112;2023-05-10T06:57:33;2.37;;;1.73;;
9524;SDS011;15940;48.734;9.112;2023-05-10T07:00:00;1.87;;;1.77;;
9524;SDS011;15940;48.734;9.112;2023-05-10T07:02:29;2.17;;;1.75;;
9524;SDS011;15940;48.734;9.112;2023-05-10T07:04:56;2.57;;;2.37;;
9524;SDS011;15940;48.734;9.112;2023-05-10T07:07:22;2.97;;;2.70;;
9524;SDS011;15940;48.734;9.112;2023-05-10T07:09:49;5.10;;;3.07;;
9524;SDS011;15940;48.734;9.112;2023-05-10T07:12:18;3.50;;;2.43;;
9524;SDS011;15940;48.734;9.112;2023-05-10T07:14:45;3.73;;;2.50;;
9524;SDS011;15940;48.734;9.112;2023-05-10T07:17:11;4.93;;;2.50;;
9524;SDS011;15940;48.734;9.112;2023-05-10T07:19:38;3.87;;;2.03;;
9524;SDS011;15940;48.734;9.112;2023-05-10T07:22:05;1.87;;;1.77;;
9524;SDS011;15940;48.734;9.112;2023-05-10T07:24:32;2.43;;;1.60;;
9524;SDS011;15940;48.734;9.112;2023-05-10T07:26:59;2.13;;;1.90;;
9524;SDS011;15940;48.734;9.112;2023-05-10T07:29:28;1.60;;;1.50;;
9524;SDS011;15940;48.734;9.112;2023-05-10T07:31:55;1.97;;;1.70;;
9524;SDS011;15940;48.734;9.112;2023-05-10T07:34:22;1.63;;;1.50;;
9524;SDS011;15940;48.734;9.112;2023-05-10T07:39:03;1.40;;;1.40;;
9524;SDS011;15940;48.734;9.112;2023-05-10T07:41:30;1.63;;;1.53;;
9524;SDS011;15940;48.734;9.112;2023-05-10T07:43:57;1.67;;;1.50;;
9524;SDS011;15940;48.734;9.112;2023-05-10T07:46:24;1.60;;;1.50;;
9524;SDS011;15940;48.734;9.112;2023-05-10T07:48:51;1.40;;;1.30;;
9524;SDS011;15940;48.734;9.112;2023-05-10T07:51:18;1.00;;;1.00;;
9524;SDS011;15940;48.734;9.112;2023-05-10T07:53:45;3.47;;;1.37;;
9524;SDS011;15940;48.734;9.112;2023-05-10T07:56:23;1.10;;;1.10;;
9524;SDS011;15940;48.734;9.112;2023-05-10T07:58:52;1.23;;;1.23;;
9524;SDS011;15940;48.734;9.112;2023-05-10T08:01:20;0.90;;;0.90;;
9524;SDS011;15940;48.734;9.112;2023-05-10T08:03:47;3.03;;;1.30;;
9524;SDS011;15940;48.734;9.112;2023-05-10T08:06:16;1.43;;;1.30;;
9524;SDS011;15940;48.734;9.112;2023-05-10T08:08:44;4.63;;;1.10;;
9524;SDS011;15940;48.734;9.112;2023-05-10T08:11:15;2.33;;;1.40;;
9524;SDS011;15940;48.734;9.112;2023-05-10T08:13:44;1.57;;;1.47;;
9524;SDS011;15940;48.734;9.112;2023-05-10T08:16:11;1.47;;;1.37;;
9524;SDS011;15940;48.734;9.112;2023-05-10T08:18:38;1.50;;;1.10;;
9524;SDS011;15940;48.734;9.112;2023-05-10T08:21:05;1.23;;;0.80;;
9524;SDS011;15940;48.734;9.112;2023-05-10T08:23:33;6.63;;;1.07;;
9524;SDS011;15940;48.734;9.112;2023-05-10T08:26:00;0.80;;;0.80;;
9524;SDS011;15940;48.734;9.112;2023-05-10T08:28:27;0.90;;;0.90;;
9524;SDS011;15940;48.734;9.112;2023-05-10T08:30:55;2.00;;;1.00;;
9524;SDS011;15940;48.734;9.112;2023-05-10T08:33:22;1.17;;;1.00;;
9524;SDS011;15940;48.734;9.112;2023-05-10T08:35:49;1.00;;;1.00;;
9524;SDS011;15940;48.734;9.112;2023-05-10T08:38:16;1.27;;;0.90;;
9524;SDS011;15940;48.734;9.112;2023-05-10T08:40:44;1.10;;;1.00;;
9524;SDS011;15940;48.734;9.112;2023-05-10T08:43:12;1.90;;;1.10;;
9524;SDS011;15940;48.734;9.112;2023-05-10T08:45:41;1.27;;;1.00;;
9524;SDS011;15940;48.734;9.112;2023-05-10T08:48:11;1.70;;;0.97;;
9524;SDS011;15940;48.734;9.112;2023-05-10T08:50:39;1.00;;;1.00;;
9524;SDS011;15940;48.734;9.112;2023-05-10T08:53:09;2.67;;;0.97;;
9524;SDS011;15940;48.734;9.112;2023-05-10T08:55:38;1.47;;;0.87;;
9524;SDS011;15940;48.734;9.112;2023-05-10T08:58:07;2.17;;;0.80;;
9524;SDS011;15940;48.734;9.112;2023-05-10T09:00:35;1.10;;;0.90;;
9524;SDS011;15940;48.734;9.112;2023-05-10T09:03:03;1.97;;;1.00;;
9524;SDS011;15940;48.734;9.112;2023-05-10T09:05:33;3.40;;;0.80;;
9524;SDS011;15940;48.734;9.112;2023-05-10T09:08:01;5.80;;;1.10;;
9524;SDS011;15940;48.734;9.112;2023-05-10T09:10:28;1.43;;;0.73;;
9524;SDS011;15940;48.734;9.112;2023-05-10T09:12:57;0.70;;;0.70;;
9524;SDS011;15940;48.734;9.112;2023-05-10T09:15:25;1.00;;;1.00;;
9524;SDS011;15940;48.734;9.112;2023-05-10T09:17:52;1.87;;;1.73;;
9524;SDS011;15940;48.734;9.112;2023-05-10T09:20:20;0.73;;;0.73;;
9524;SDS011;15940;48.734;9.112;2023-05-10T09:22:49;0.80;;;0.60;;
9524;SDS011;15940;48.734;9.112;2023-05-10T09:27:35;1.80;;;1.37;;
9524;SDS011;15940;48.734;9.112;2023-05-10T09:30:03;1.17;;;1.10;;
9524;SDS011;15940;48.734;9.112;2023-05-10T09:32:38;2.20;;;1.30;;
9524;SDS011;15940;48.734;9.112;2023-05-10T09:35:06;0.57;;;0.57;;
9524;SDS011;15940;48.734;9.112;2023-05-10T09:37:35;1.53;;;0.87;;
9524;SDS011;15940;48.734;9.112;2023-05-10T09:40:04;1.07;;;0.80;;
9524;SDS011;15940;48.734;9.112;2023-05-10T09:42:34;2.37;;;0.70;;
9524;SDS011;15940;48.734;9.112;2023-05-10T09:45:02;0.60;;;0.60;;
9524;SDS011;15940;48.734;9.112;2023-05-10T09:47:31;0.70;;;0.70;;
9524;SDS011;15940;48.734;9.112;2023-05-10T09:49:59;0.93;;;0.57;;
9524;SDS011;15940;48.734;9.112;2023-05-10T09:52:29;0.50;;;0.50;;
9524;SDS011;15940;48.734;9.112;2023-05-10T09:54:57;0.90;;;0.40;;
9524;SDS011;15940;48.734;9.112;2023-05-10T09:57:24;0.40;;;0.40;;
9524;SDS011;15940;48.734;9.112;2023-05-10T09:59:53;1.27;;;0.87;;
9524;SDS011;15940;48.734;9.112;2023-05-10T10:02:20;0.90;;;0.70;;
9524;SDS011;15940;48.734;9.112;2023-05-10T10:04:54;0.53;;;0.53;;
9524;SDS011;15940;48.734;9.112;2023-05-10T10:07:22;1.30;;;1.20;;
9524;SDS011;15940;48.734;9.112;2023-05-10T10:09:51;0.43;;;0.43;;
9524;SDS011;15940;48.734;9.112;2023-05-10T10:12:19;0.70;;;0.70;;
9524;SDS011;15940;48.734;9.112;2023-05-10T10:14:46;0.40;;;0.40;;
9524;SDS011;15940;48.734;9.112;2023-05-10T10:17:16;0.70;;;0.70;;
9524;SDS011;15940;48.734;9.112;2023-05-10T10:19:43;0.83;;;0.50;;
9524;SDS011;15940;48.734;9.112;2023-05-10T10:22:14;1.07;;;0.97;;
9524;SDS011;15940;48.734;9.112;2023-05-10T10:24:41;0.93;;;0.50;;
9524;SDS011;15940;48.734;9.112;2023-05-10T10:27:12;0.80;;;0.80;;
9524;SDS011;15940;48.734;9.112;2023-05-10T10:29:50;1.13;;;0.60;;
9524;SDS011;15940;48.734;9.112;2023-05-10T10:32:33;1.13;;;0.63;;
9524;SDS011;15940;48.734;9.112;2023-05-10T10:35:14;1.27;;;0.70;;
9524;SDS011;15940;48.734;9.112;2023-05-10T10:37:45;0.60;;;0.60;;
9524;SDS011;15940;48.734;9.112;2023-05-10T10:40:25;0.60;;;0.60;;
9524;SDS011;15940;48.734;9.112;2023-05-10T10:42:54;0.97;;;0.70;;
9524;SDS011;15940;48.734;9.112;2023-05-10T10:45:22;0.50;;;0.50;;
9524;SDS011;15940;48.734;9.112;2023-05-10T10:47:56;1.57;;;0.67;;
9524;SDS011;15940;48.734;9.112;2023-05-10T10:50:51;1.40;;;0.70;;
9524;SDS011;15940;48.734;9.112;2023-05-10T10:53:25;0.67;;;0.67;;
9524;SDS011;15940;48.734;9.112;2023-05-10T10:56:02;1.93;;;0.50;;
9524;SDS011;15940;48.734;9.112;2023-05-10T10:58:34;0.33;;;0.33;;
9524;SDS011;15940;48.734;9.112;2023-05-10T11:01:09;0.73;;;0.70;;
9524;SDS011;15940;48.734;9.112;2023-05-10T11:03:39;3.73;;;0.80;;
9524;SDS011;15940;48.734;9.112;2023-05-10T11:06:07;4.67;;;0.60;;
9524;SDS011;15940;48.734;9.112;2023-05-10T11:08:34;1.00;;;0.57;;
9524;SDS011;15940;48.734;9.112;2023-05-10T11:11:09;2.73;;;0.70;;
9524;SDS011;15940;48.734;9.112;2023-05-10T11:13:40;2.30;;;0.70;;
9524;SDS011;15940;48.734;9.112;2023-05-10T11:16:10;0.77;;;0.70;;
9524;SDS011;15940;48.734;9.112;2023-05-10T11:18:56;1.77;;;0.80;;
9524;SDS011;15940;48.734;9.112;2023-05-10T11:21:27;1.13;;;0.83;;
9524;SDS011;15940;48.734;9.112;2023-05-10T11:23:54;0.93;;;0.60;;
9524;SDS011;15940;48.734;9.112;2023-05-10T11:26:23;2.70;;;0.80;;
9524;SDS011;15940;48.734;9.112;2023-05-10T11:28:52;2.43;;;0.70;;
9524;SDS011;15940;48.734;9.112;2023-05-10T11:31:21;0.77;;;0.70;;
9524;SDS011;15940;48.734;9.112;2023-05-10T11:33:51;0.60;;;0.60;;
9524;SDS011;15940;48.734;9.112;2023-05-10T11:36:23;1.23;;;0.60;;
9524;SDS011;15940;48.734;9.112;2023-05-10T11:38:52;2.10;;;0.70;;
9524;SDS011;15940;48.734;9.112;2023-05-10T11:41:20;1.23;;;0.67;;
9524;SDS011;15940;48.734;9.112;2023-05-10T11:43:49;2.50;;;0.73;;
9524;SDS011;15940;48.734;9.112;2023-05-10T11:46:18;0.60;;;0.60;;
9524;SDS011;15940;48.734;9.112;2023-05-10T11:48:46;0.80;;;0.80;;
9524;SDS011;15940;48.734;9.112;2023-05-10T11:51:19;1.70;;;0.97;;
9524;SDS011;15940;48.734;9.112;2023-05-10T11:53:49;2.33;;;0.60;;
9524;SDS011;15940;48.734;9.112;2023-05-10T11:56:16;3.47;;;1.17;;
9524;SDS011;15940;48.734;9.112;2023-05-10T11:58:43;0.63;;;0.63;;
9524;SDS011;15940;48.734;9.112;2023-05-10T12:01:12;1.30;;;0.90;;
9524;SDS011;15940;48.734;9.112;2023-05-10T12:03:39;1.60;;;0.97;;
9524;SDS011;15940;48.734;9.112;2023-05-10T12:06:06;0.83;;;0.70;;
9524;SDS011;15940;48.734;9.112;2023-05-10T12:08:35;1.27;;;0.83;;
9524;SDS011;15940;48.734;9.112;2023-05-10T12:11:06;1.80;;;0.97;;
9524;SDS011;15940;48.734;9.112;2023-05-10T12:13:37;0.67;;;0.67;;
9524;SDS011;15940;48.734;9.112;2023-05-10T12:16:12;2.10;;;0.87;;
9524;SDS011;15940;48.734;9.112;2023-05-10T12:18:41;2.27;;;0.83;;
9524;SDS011;15940;48.734;9.112;2023-05-10T12:21:09;2.27;;;0.90;;
9524;SDS011;15940;48.734;9.112;2023-05-10T12:23:39;3.73;;;1.07;;
9524;SDS011;15940;48.734;9.112;2023-05-10T12:26:06;2.67;;;1.10;;
9524;SDS011;15940;48.734;9.112;2023-05-10T12:28:35;1.27;;;1.07;;
9524;SDS011;15940;48.734;9.112;2023-05-10T12:31:03;1.97;;;1.00;;
9524;SDS011;15940;48.734;9.112;2023-05-10T12:33:35;3.67;;;1.00;;
9524;SDS011;15940;48.734;9.112;2023-05-10T12:36:06;1.50;;;0.80;;
9524;SDS011;15940;48.734;9.112;2023-05-10T12:38:35;3.07;;;1.30;;
9524;SDS011;15940;48.734;9.112;2023-05-10T12:41:05;2.07;;;0.80;;
9524;SDS011;15940;48.734;9.112;2023-05-10T12:43:33;1.10;;;1.00;;
9524;SDS011;15940;48.734;9.112;2023-05-10T12:46:05;4.00;;;1.03;;
9524;SDS011;15940;48.734;9.112;2023-05-10T12:48:33;1.50;;;1.20;;
9524;SDS011;15940;48.734;9.112;2023-05-10T12:51:00;2.83;;;1.10;;
9524;SDS011;15940;48.734;9.112;2023-05-10T12:53:28;0.83;;;0.83;;
9524;SDS011;15940;48.734;9.112;2023-05-10T12:55:55;1.17;;;1.00;;
9524;SDS011;15940;48.734;9.112;2023-05-10T12:58:23;2.60;;;1.00;;
9524;SDS011;15940;48.734;9.112;2023-05-10T13:00:50;0.93;;;0.80;;
9524;SDS011;15940;48.734;9.112;2023-05-10T13:03:17;1.10;;;1.03;;
9524;SDS011;15940;48.734;9.112;2023-05-10T13:05:45;1.40;;;1.30;;
9524;SDS011;15940;48.734;9.112;2023-05-10T13:08:12;1.47;;;1.00;;
9524;SDS011;15940;48.734;9.112;2023-05-10T13:10:39;1.80;;;1.17;;
9524;SDS011;15940;48.734;9.112;2023-05-10T13:13:05;2.70;;;1.13;;
9524;SDS011;15940;48.734;9.112;2023-05-10T13:15:34;2.10;;;1.07;;
9524;SDS011;15940;48.734;9.112;2023-05-10T13:18:02;1.63;;;1.00;;
9524;SDS011;15940;48.734;9.112;2023-05-10T13:20:29;2.27;;;1.10;;
9524;SDS011;15940;48.734;9.112;2023-05-10T13:22:55;0.80;;;0.70;;
9524;SDS011;15940;48.734;9.112;2023-05-10T13:25:23;1.10;;;1.00;;
9524;SDS011;15940;48.734;9.112;2023-05-10T13:27:50;1.60;;;0.90;;
9524;SDS011;15940;48.734;9.112;2023-05-10T13:30:16;2.20;;;0.90;;
9524;SDS011;15940;48.734;9.112;2023-05-10T13:32:45;1.57;;;0.83;;
9524;SDS011;15940;48.734;9.112;2023-05-10T13:35:12;1.77;;;1.10;;
9524;SDS011;15940;48.734;9.112;2023-05-10T13:37:39;4.83;;;1.00;;
9524;SDS011;15940;48.734;9.112;2023-05-10T13:40:06;2.37;;;1.30;;
9524;SDS011;15940;48.734;9.112;2023-05-10T13:42:34;1.83;;;1.00;;
9524;SDS011;15940;48.734;9.112;2023-05-10T13:45:01;2.63;;;0.87;;
9524;SDS011;15940;48.734;9.112;2023-05-10T13:47:28;1.60;;;1.17;;
9524;SDS011;15940;48.734;9.112;2023-05-10T13:49:57;1.33;;;0.90;;
9524;SDS011;15940;48.734;9.112;2023-05-10T13:52:24;1.83;;;0.93;;
9524;SDS011;15940;48.734;9.112;2023-05-10T13:54:52;1.33;;;0.90;;
9524;SDS011;15940;48.734;9.112;2023-05-10T13:57:20;1.40;;;0.80;;
9524;SDS011;15940;48.734;9.112;2023-05-10T13:59:48;1.77;;;0.97;;
9524;SDS011;15940;48.734;9.112;2023-05-10T14:02:15;1.17;;;0.77;;
9524;SDS011;15940;48.734;9.112;2023-05-10T14:04:42;1.57;;;1.03;;
9524;SDS011;15940;48.734;9.112;2023-05-10T14:07:11;1.33;;;1.10;;
9524;SDS011;15940;48.734;9.112;2023-05-10T14:09:37;1.17;;;0.90;;
9524;SDS011;15940;48.734;9.112;2023-05-10T14:12:04;1.03;;;0.90;;
9524;SDS011;15940;48.734;9.112;2023-05-10T14:14:31;3.00;;;1.13;;
9524;SDS011;15940;48.734;9.112;2023-05-10T14:16:58;2.43;;;1.23;;
9524;SDS011;15940;48.734;9.112;2023-05-10T14:19:25;1.27;;;0.83;;
9524;SDS011;15940;48.734;9.112;2023-05-10T14:21:55;1.00;;;0.87;;
9524;SDS011;15940;48.734;9.112;2023-05-10T14:24:23;1.50;;;0.83;;
9524;SDS011;15940;48.734;9.112;2023-05-10T14:26:50;4.57;;;1.07;;
9524;SDS011;15940;48.734;9.112;2023-05-10T14:29:18;0.70;;;0.70;;
9524;SDS011;15940;48.734;9.112;2023-05-10T14:31:45;3.60;;;1.30;;
9524;SDS011;15940;48.734;9.112;2023-05-10T14:34:12;2.10;;;0.97;;
9524;SDS011;15940;48.734;9.112;2023-05-10T14:36:39;1.00;;;1.00;;
9524;SDS011;15940;48.734;9.112;2023-05-10T14:39:06;3.70;;;1.10;;
9524;SDS011;15940;48.734;9.112;2023-05-10T14:41:36;0.70;;;0.70;;
9524;SDS011;15940;48.734;9.112;2023-05-10T14:44:04;2.73;;;1.10;;
9524;SDS011;15940;48.734;9.112;2023-05-10T14:46:31;4.17;;;0.80;;
9524;SDS011;15940;48.734;9.112;2023-05-10T14:48:59;0.80;;;0.80;;
9524;SDS011;15940;48.734;9.112;2023-05-10T14:51:26;1.83;;;1.13;;
9524;SDS011;15940;48.734;9.112;2023-05-10T14:53:53;1.33;;;0.83;;
9524;SDS011;15940;48.734;9.112;2023-05-10T14:56:20;2.57;;;1.00;;
9524;SDS011;15940;48.734;9.112;2023-05-10T14:58:49;2.23;;;0.83;;
9524;SDS011;15940;48.734;9.112;2023-05-10T15:01:16;2.80;;;0.80;;
9524;SDS011;15940;48.734;9.112;2023-05-10T15:06:15;2.30;;;1.03;;
9524;SDS011;15940;48.734;9.112;2023-05-10T15:08:42;2.03;;;0.93;;
9524;SDS011;15940;48.734;9.112;2023-05-10T15:11:09;0.97;;;0.80;;
9524;SDS011;15940;48.734;9.112;2023-05-10T15:13:36;2.57;;;1.10;;
9524;SDS011;15940;48.734;9.112;2023-05-10T15:16:03;1.20;;;0.80;;
9524;SDS011;15940;48.734;9.112;2023-05-10T15:18:30;0.80;;;0.80;;
9524;SDS011;15940;48.734;9.112;2023-05-10T15:20:57;2.33;;;0.80;;